createdAt,value
2018-08-22T06:55:06.563Z,22.1
2018-08-22T06:55:56.605Z,22.1
2018-08-22T06:56:46.146Z,22.1
2018-08-22T06:57:36.727Z,22.1
2018-08-22T06:58:27.109Z,22.1
2018-08-22T06:59:17.391Z,22.1
2018-08-22T07:00:07.194Z,22.1
2018-08-22T07:00:57.857Z,22.1
2018-08-22T07:01:47.294Z,22.1
2018-08-22T07:02:37.446Z,22.1
2018-08-22T07:03:27.539Z,22.1
2018-08-22T07:04:17.529Z,22.1
2018-08-22T07:05:07.624Z,22.1
2018-08-22T07:05:56.470Z,22.1
2018-08-22T07:06:47.686Z,22.1
2018-08-22T07:07:37.177Z,22.1
2018-08-22T07:08:28.169Z,22.1
2018-08-22T07:09:18.170Z,22.1
2018-08-22T07:10:07.928Z,22.1
2018-08-22T07:10:57.981Z,22.1
2018-08-22T07:11:47.804Z,22.1
2018-08-22T07:12:37.642Z,22.1
2018-08-22T07:13:28.235Z,22.1
2018-08-22T07:14:18.775Z,22.1
2018-08-22T07:15:09.150Z,22.1
2018-08-22T07:15:59.165Z,22.1
2018-08-22T07:16:49.360Z,22.1
2018-08-22T07:17:39.288Z,22.1
2018-08-22T07:18:29.340Z,22.1
2018-08-22T07:19:19.149Z,22.1
2018-08-22T07:20:09.313Z,22.1
2018-08-22T07:21:01.129Z,22.1
2018-08-22T07:21:48.842Z,22.1
2018-08-22T07:22:38.105Z,22.1
2018-08-22T07:23:28.783Z,22.1
2018-08-22T07:24:19.352Z,22.1
2018-08-22T07:25:08.825Z,22.1
2018-08-22T07:25:59.276Z,22.1
2018-08-22T07:26:48.987Z,22.1
2018-08-22T07:27:38.781Z,22.1
2018-08-22T07:28:28.881Z,22.1
2018-08-22T07:29:19.225Z,22.1
2018-08-22T07:30:10.900Z,22.1
2018-08-22T07:30:59.807Z,22.1
2018-08-22T07:31:49.094Z,22.1
2018-08-22T07:32:39.365Z,22.1
2018-08-22T07:33:29.477Z,22.1
2018-08-22T07:34:20.164Z,22.1
2018-08-22T07:35:09.376Z,22.1
2018-08-22T07:36:00.675Z,22.1
2018-08-22T07:36:49.811Z,22.1
2018-08-22T07:37:40.919Z,22.1
2018-08-22T07:38:30.716Z,22.1
2018-08-22T07:39:20.761Z,22.1
2018-08-22T07:40:09.776Z,22.1
2018-08-22T07:40:59.875Z,22.1
2018-08-22T07:41:50.693Z,22.1
2018-08-22T07:42:40.452Z,22.1
2018-08-22T07:43:30.382Z,22.1
2018-08-22T07:44:20.892Z,22.1
2018-08-22T07:45:10.906Z,22.1
2018-08-22T07:46:00.605Z,22.1
2018-08-22T07:46:50.565Z,22.1
2018-08-22T07:47:41.469Z,22.1
2018-08-22T07:48:30.719Z,22.1
2018-08-22T07:49:21.594Z,22.1
2018-08-22T07:50:11.579Z,22.1
2018-08-22T07:51:00.070Z,22.1
2018-08-22T07:51:51.446Z,22.1
2018-08-22T07:52:42.073Z,22.1
2018-08-22T07:53:32.708Z,22.1
2018-08-22T07:54:21.361Z,22.1
2018-08-22T07:55:11.951Z,22.1
2018-08-22T07:56:01.373Z,22.1
2018-08-22T07:56:51.853Z,22.1
2018-08-22T07:57:42.150Z,22.1
2018-08-22T07:58:32.497Z,22.1
2018-08-22T07:59:22.287Z,22.1
2018-08-22T08:00:13.820Z,22.1
2018-08-22T08:01:02.417Z,22.1
2018-08-22T08:01:53.724Z,22.1
2018-08-22T08:02:42.942Z,22.1
2018-08-22T08:03:32.379Z,22.1
2018-08-22T08:04:22.440Z,22.1
2018-08-22T08:05:12.439Z,22.1
2018-08-22T08:06:03.416Z,22.1
2018-08-22T08:06:52.144Z,22.1
2018-08-22T08:07:42.680Z,22.1
2018-08-22T08:08:32.916Z,22.1
2018-08-22T08:09:20.907Z,22.1
2018-08-22T08:10:13.240Z,22.2
2018-08-22T08:11:04.740Z,22.1
2018-08-22T08:11:52.609Z,22.2
2018-08-22T08:12:42.819Z,22.1
2018-08-22T08:13:32.125Z,22.2
2018-08-22T08:14:23.782Z,22.2
2018-08-22T08:15:13.457Z,22.2
2018-08-22T08:16:02.753Z,22.2
2018-08-22T08:16:53.280Z,22.1
2018-08-22T08:17:42.980Z,22.1
2018-08-22T08:18:33.712Z,22.1
2018-08-22T08:19:23.325Z,22.2
2018-08-22T08:20:13.671Z,22.1
2018-08-22T08:21:04.015Z,22.2
2018-08-22T08:21:53.103Z,22.2
2018-08-22T08:22:43.428Z,22.2
2018-08-22T08:23:33.821Z,22.2
2018-08-22T08:24:23.219Z,22.2
2018-08-22T08:25:14.041Z,22.2
2018-08-22T08:26:03.858Z,22.2
2018-08-22T08:26:54.651Z,22.2
2018-08-22T08:27:44.495Z,22.2
2018-08-22T08:28:34.047Z,22.2
2018-08-22T08:29:24.571Z,22.2
2018-08-22T08:30:14.923Z,22.2
2018-08-22T08:31:04.512Z,22.2
2018-08-22T08:31:54.526Z,22.2
2018-08-22T08:32:44.318Z,22.2
2018-08-22T08:33:34.433Z,22.2
2018-08-22T08:34:25.056Z,22.2
2018-08-22T08:35:14.778Z,22.2
2018-08-22T08:36:06.389Z,22.2
2018-08-22T08:36:54.956Z,22.2
2018-08-22T08:37:44.665Z,22.2
2018-08-22T08:38:35.733Z,22.2
2018-08-22T08:39:25.438Z,22.2
2018-08-22T08:40:15.061Z,22.2
2018-08-22T08:41:05.738Z,22.2
2018-08-22T08:41:56.468Z,22.2
2018-08-22T08:42:45.573Z,22.2
2018-08-22T08:43:35.748Z,22.2
2018-08-22T08:44:25.269Z,22.2
2018-08-22T08:45:15.005Z,22.2
2018-08-22T08:46:05.204Z,22.2
2018-08-22T08:46:56.181Z,22.2
2018-08-22T08:47:46.109Z,22.2
2018-08-22T08:48:36.132Z,22.2
2018-08-22T08:49:26.594Z,22.2
2018-08-22T08:50:16.012Z,22.2
2018-08-22T08:51:06.148Z,22.2
2018-08-22T08:51:56.114Z,22.2
2018-08-22T08:52:46.075Z,22.2
2018-08-22T08:53:36.449Z,22.2
2018-08-22T08:54:26.853Z,22.2
2018-08-22T08:55:16.472Z,22.2
2018-08-22T08:56:06.872Z,22.2
2018-08-22T08:56:56.280Z,22.2
2018-08-22T08:57:45.771Z,22.2
2018-08-22T08:58:36.289Z,22.2
2018-08-22T09:16:08.815Z,22.2
2018-08-22T09:17:04.113Z,22.3
2018-08-22T09:18:12.398Z,22.3
2018-08-22T09:19:02.424Z,22.3
2018-08-22T09:20:36.861Z,22.3
2018-08-22T09:20:48.068Z,22.3
2018-08-22T09:21:39.558Z,22.3
2018-08-22T09:22:28.353Z,22.3
2018-08-22T09:23:18.209Z,22.3
2018-08-22T09:24:09.309Z,22.3
2018-08-22T09:24:58.738Z,22.3
2018-08-22T09:25:48.660Z,22.3
2018-08-22T09:26:38.249Z,22.3
2018-08-22T09:27:28.507Z,22.3
2018-08-22T09:28:20.369Z,22.3
2018-08-22T09:29:08.648Z,22.3
2018-08-22T09:29:58.999Z,22.3
2018-08-22T09:30:48.273Z,22.3
2018-08-22T09:31:38.887Z,22.3
2018-08-22T09:32:27.778Z,22.3
2018-08-22T09:33:18.504Z,22.3
2018-08-22T09:34:08.213Z,22.3
2018-08-22T09:34:59.391Z,22.3
2018-08-22T09:35:49.006Z,22.3
2018-08-22T09:36:39.986Z,22.3
2018-08-22T09:37:29.114Z,22.3
2018-08-22T09:38:18.295Z,22.3
2018-08-22T09:39:09.748Z,22.3
2018-08-22T09:40:00.564Z,22.3
2018-08-22T09:40:49.652Z,22.3
2018-08-22T09:41:39.569Z,22.3
2018-08-22T09:42:28.609Z,22.3
2018-08-22T09:43:21.385Z,22.3
2018-08-22T09:44:09.582Z,22.3
2018-08-22T09:44:59.642Z,22.3
2018-08-22T09:45:50.340Z,22.3
2018-08-22T09:46:41.045Z,22.3
2018-08-22T09:47:30.286Z,22.3
2018-08-22T09:48:19.902Z,22.3
2018-08-22T09:49:09.962Z,22.3
2018-08-22T09:50:00.996Z,22.3
2018-08-22T09:50:51.774Z,22.3
2018-08-22T09:51:40.707Z,22.3
2018-08-22T09:52:30.435Z,22.3
2018-08-22T09:53:19.931Z,22.3
2018-08-22T09:54:10.289Z,22.3
2018-08-22T09:55:00.606Z,22.3
2018-08-22T09:55:50.727Z,22.3
2018-08-22T09:56:39.945Z,22.3
2018-08-22T09:57:29.975Z,22.3
2018-08-22T09:58:22.476Z,22.3
2018-08-22T09:59:11.016Z,22.3
2018-08-22T10:00:01.975Z,22.3
2018-08-22T10:00:52.353Z,22.3
2018-08-22T10:01:40.372Z,22.3
2018-08-22T10:02:31.817Z,22.3
2018-08-22T10:03:21.600Z,22.3
2018-08-22T10:04:10.814Z,22.3
2018-08-22T10:05:01.165Z,22.3
2018-08-22T10:05:51.488Z,22.3
2018-08-22T10:06:45.020Z,22.3
2018-08-22T10:07:33.016Z,22.3
2018-08-22T10:08:21.477Z,22.3
2018-08-22T10:09:12.370Z,22.3
2018-08-22T10:10:03.313Z,22.3
2018-08-22T10:10:52.180Z,22.3
2018-08-22T10:11:41.920Z,22.3
2018-08-22T10:12:32.653Z,22.3
2018-08-22T10:13:21.518Z,22.3
2018-08-22T10:14:12.674Z,22.3
2018-08-22T10:15:02.011Z,22.3
2018-08-22T10:15:52.235Z,22.3
2018-08-22T10:16:42.940Z,22.3
2018-08-22T10:17:32.997Z,22.3
2018-08-22T10:18:22.721Z,22.3
2018-08-22T10:19:12.897Z,22.3
2018-08-22T10:20:02.580Z,22.3
2018-08-22T10:20:52.924Z,22.3
2018-08-22T10:21:42.976Z,22.3
2018-08-22T10:22:33.271Z,22.3
2018-08-22T10:23:23.526Z,22.3
2018-08-22T10:24:12.659Z,22.3
2018-08-22T10:25:03.532Z,22.3
2018-08-22T10:25:53.062Z,22.3
2018-08-22T10:26:44.552Z,22.3
2018-08-22T10:27:33.202Z,22.3
2018-08-22T10:28:23.548Z,22.3
2018-08-22T10:29:13.823Z,22.3
2018-08-22T10:30:03.590Z,22.3
2018-08-22T10:30:53.139Z,22.3
2018-08-22T10:31:44.023Z,22.3
2018-08-22T10:32:34.377Z,22.3
2018-08-22T10:33:23.961Z,22.3
2018-08-22T10:34:13.984Z,22.3
2018-08-22T10:35:04.692Z,22.3
2018-08-22T10:35:53.853Z,22.3
2018-08-22T10:36:44.439Z,22.3
2018-08-22T10:37:34.560Z,22.3
2018-08-22T10:38:24.393Z,22.3
2018-08-22T10:39:14.123Z,22.3
2018-08-22T10:40:04.675Z,22.3
2018-08-22T10:40:54.741Z,22.3
2018-08-22T10:41:44.425Z,22.3
2018-08-22T10:42:34.674Z,22.3
2018-08-22T10:43:24.233Z,22.3
2018-08-22T10:44:14.200Z,22.3
2018-08-22T10:45:04.556Z,22.3
2018-08-22T10:45:54.904Z,22.3
2018-08-22T10:46:44.931Z,22.3
2018-08-22T10:47:34.222Z,22.3
2018-08-22T10:48:24.152Z,22.3
2018-08-22T10:49:14.293Z,22.3
2018-08-22T10:50:05.006Z,22.3
2018-08-22T10:50:54.471Z,22.3
2018-08-22T10:51:45.135Z,22.3
2018-08-22T10:52:35.174Z,22.3
2018-08-22T10:53:25.792Z,22.3
2018-08-22T10:54:15.638Z,22.3
2018-08-22T10:55:05.039Z,22.3
2018-08-22T10:55:55.688Z,22.3
2018-08-22T10:56:45.976Z,22.3
2018-08-22T10:57:36.028Z,22.3
2018-08-22T10:58:26.078Z,22.3
2018-08-22T10:59:16.162Z,22.3
2018-08-22T11:00:06.237Z,22.3
2018-08-22T11:00:56.272Z,22.3
2018-08-22T11:01:46.400Z,22.3
2018-08-22T11:02:36.465Z,22.3
2018-08-22T11:03:26.205Z,22.3
2018-08-22T11:04:16.544Z,22.3
2018-08-22T11:05:06.618Z,22.3
2018-08-22T11:05:56.679Z,22.3
2018-08-22T11:06:46.774Z,22.3
2018-08-22T11:07:36.567Z,22.3
2018-08-22T11:08:26.874Z,22.3
2018-08-22T11:09:16.931Z,22.3
2018-08-22T11:10:09.073Z,22.3
2018-08-22T11:10:56.834Z,22.3
2018-08-22T11:11:47.154Z,22.3
2018-08-22T11:12:37.198Z,22.3
2018-08-22T11:13:26.801Z,22.3
2018-08-22T11:14:17.121Z,22.3
2018-08-22T11:15:07.427Z,22.3
2018-08-22T11:15:58.831Z,22.3
2018-08-22T11:16:46.766Z,22.3
2018-08-22T11:17:36.822Z,22.3
2018-08-22T11:18:26.888Z,22.3
2018-08-22T11:19:16.984Z,22.3
2018-08-22T11:20:06.751Z,22.3
2018-08-22T11:20:57.093Z,22.3
2018-08-22T11:21:47.441Z,22.3
2018-08-22T11:22:38.174Z,22.3
2018-08-22T11:23:27.547Z,22.3
2018-08-22T11:24:18.186Z,22.3
2018-08-22T11:25:07.399Z,22.3
2018-08-22T11:25:57.499Z,22.3
2018-08-22T11:26:47.591Z,22.4
2018-08-22T11:27:37.831Z,22.3
2018-08-22T11:28:28.200Z,22.3
2018-08-22T11:29:17.790Z,22.4
2018-08-22T11:30:08.117Z,22.3
2018-08-22T11:30:58.143Z,22.3
2018-08-22T11:31:48.436Z,22.4
2018-08-22T11:32:38.235Z,22.4
2018-08-22T11:33:28.352Z,22.4
2018-08-22T11:34:19.107Z,22.4
2018-08-22T11:35:08.696Z,22.3
2018-08-22T11:35:58.845Z,22.3
2018-08-22T11:36:48.317Z,22.4
2018-08-22T11:37:39.172Z,22.4
2018-08-22T11:38:28.942Z,22.4
2018-08-22T11:39:19.047Z,22.4
2018-08-22T11:40:09.404Z,22.4
2018-08-22T11:40:59.212Z,22.4
2018-08-22T11:41:48.953Z,22.4
2018-08-22T11:42:39.052Z,22.4
2018-08-22T11:43:29.368Z,22.4
2018-08-22T11:44:19.217Z,22.3
2018-08-22T11:45:08.656Z,22.4
2018-08-22T11:45:58.442Z,22.4
2018-08-22T11:46:51.526Z,22.4
2018-08-22T11:47:39.677Z,22.4
2018-08-22T11:48:29.502Z,22.4
2018-08-22T11:49:19.550Z,22.4
2018-08-22T11:50:09.083Z,22.4
2018-08-22T11:50:59.158Z,22.4
2018-08-22T11:51:49.540Z,22.4
2018-08-22T11:52:39.309Z,22.4
2018-08-22T11:53:30.454Z,22.4
2018-08-22T11:54:20.234Z,22.4
2018-08-22T11:55:10.324Z,22.4
2018-08-22T11:56:00.276Z,22.4
2018-08-22T11:56:50.186Z,22.4
2018-08-22T11:57:40.074Z,22.4
2018-08-22T11:58:30.553Z,22.4
2018-08-22T11:59:20.631Z,22.4
2018-08-22T12:00:11.027Z,22.4
2018-08-22T12:01:00.209Z,22.4
2018-08-22T12:01:51.021Z,22.4
2018-08-22T12:02:40.649Z,22.4
2018-08-22T12:03:31.216Z,22.4
2018-08-22T12:04:21.144Z,22.4
2018-08-22T12:05:11.110Z,22.4
2018-08-22T12:06:01.420Z,22.4
2018-08-22T12:06:51.236Z,22.4
2018-08-22T12:07:41.239Z,22.4
2018-08-22T12:08:31.112Z,22.4
2018-08-22T12:09:21.391Z,22.4
2018-08-22T12:10:10.879Z,22.4
2018-08-22T12:11:01.257Z,22.4
2018-08-22T12:11:50.484Z,22.4
2018-08-22T12:12:41.650Z,22.4
2018-08-22T12:13:31.438Z,22.4
2018-08-22T12:14:21.778Z,22.4
2018-08-22T12:15:11.826Z,22.4
2018-08-22T12:16:01.908Z,22.4
2018-08-22T12:16:51.749Z,22.4
2018-08-22T12:17:41.495Z,22.4
2018-08-22T12:18:31.811Z,22.4
2018-08-22T12:19:21.865Z,22.4
2018-08-22T12:20:12.240Z,22.4
2018-08-22T12:21:01.758Z,22.4
2018-08-22T12:21:51.054Z,22.4
2018-08-22T12:22:42.152Z,22.4
2018-08-22T12:23:33.525Z,22.4
2018-08-22T12:24:22.565Z,22.4
2018-08-22T12:25:12.729Z,22.4
2018-08-22T12:26:02.993Z,22.4
2018-08-22T12:26:52.219Z,22.4
2018-08-22T12:27:42.023Z,22.4
2018-08-22T12:28:32.651Z,22.4
2018-08-22T12:29:21.825Z,22.4
2018-08-22T12:30:13.077Z,22.4
2018-08-22T12:31:02.823Z,22.4
2018-08-22T12:31:52.370Z,22.4
2018-08-22T12:32:42.701Z,22.4
2018-08-22T12:33:33.074Z,22.4
2018-08-22T12:34:22.542Z,22.4
2018-08-22T12:35:12.857Z,22.4
2018-08-22T12:36:02.643Z,22.4
2018-08-22T12:36:53.049Z,22.4
2018-08-22T12:37:43.355Z,22.4
2018-08-22T12:38:33.115Z,22.4
2018-08-22T12:39:23.752Z,22.4
2018-08-22T12:40:13.549Z,22.4
2018-08-22T12:41:03.572Z,22.4
2018-08-22T12:41:54.194Z,22.4
2018-08-22T12:42:43.182Z,22.4
2018-08-22T12:43:34.089Z,22.4
2018-08-22T12:44:23.996Z,22.4
2018-08-22T12:45:14.424Z,22.4
2018-08-22T12:46:04.274Z,22.4
2018-08-22T12:46:54.572Z,22.4
2018-08-22T12:47:44.383Z,22.4
2018-08-22T12:48:34.560Z,22.4
2018-08-22T12:49:24.464Z,22.4
2018-08-22T12:50:14.601Z,22.4
2018-08-22T12:51:04.339Z,22.4
2018-08-22T12:51:53.925Z,22.4
2018-08-22T12:52:44.759Z,22.4
2018-08-22T12:53:34.266Z,22.4
2018-08-22T12:54:24.348Z,22.4
2018-08-22T12:55:15.234Z,22.4
2018-08-22T12:56:05.010Z,22.4
2018-08-22T12:56:55.176Z,22.4
2018-08-22T12:57:44.954Z,22.4
2018-08-22T12:58:34.690Z,22.4
2018-08-22T12:59:24.843Z,22.4
2018-08-22T13:00:15.153Z,22.4
2018-08-22T13:01:04.663Z,22.4
2018-08-22T13:01:55.549Z,22.4
2018-08-22T13:02:44.236Z,22.4
2018-08-22T13:03:35.133Z,22.4
2018-08-22T13:04:25.731Z,22.4
2018-08-22T13:05:14.674Z,22.4
2018-08-22T13:06:05.051Z,22.4
2018-08-22T13:06:55.676Z,22.4
2018-08-22T13:07:44.886Z,22.4
2018-08-22T13:08:35.511Z,22.4
2018-08-22T13:09:25.646Z,22.4
2018-08-22T13:10:14.763Z,22.5
2018-08-22T13:11:05.513Z,22.5
2018-08-22T13:11:55.476Z,22.5
2018-08-22T13:12:46.368Z,22.5
2018-08-22T13:13:36.216Z,22.5
2018-08-22T13:14:26.296Z,22.5
2018-08-22T13:15:16.326Z,22.5
2018-08-22T13:16:06.172Z,22.5
2018-08-22T13:16:56.323Z,22.5
2018-08-22T13:17:46.512Z,22.5
2018-08-22T13:18:36.024Z,22.5
2018-08-22T13:19:26.871Z,22.5
2018-08-22T13:20:15.876Z,22.4
2018-08-22T13:21:06.737Z,22.5
2018-08-22T13:21:56.562Z,22.4
2018-08-22T13:22:47.126Z,22.5
2018-08-22T13:23:36.365Z,22.4
2018-08-22T13:24:26.630Z,22.5
2018-08-22T13:25:16.762Z,22.5
2018-08-22T13:26:07.165Z,22.5
2018-08-22T13:26:56.680Z,22.5
2018-08-22T13:27:47.321Z,22.5
2018-08-22T13:28:37.654Z,22.5
2018-08-22T13:29:26.472Z,22.5
2018-08-22T13:30:17.436Z,22.5
2018-08-22T13:31:06.978Z,22.5
2018-08-22T13:31:57.981Z,22.5
2018-08-22T13:32:47.894Z,22.5
2018-08-22T13:33:37.819Z,22.5
2018-08-22T13:34:27.282Z,22.5
2018-08-22T13:35:17.591Z,22.5
2018-08-22T13:36:08.529Z,22.5
2018-08-22T13:36:58.217Z,22.5
2018-08-22T13:37:48.638Z,22.5
2018-08-22T13:38:38.664Z,22.5
2018-08-22T13:39:28.476Z,22.5
2018-08-22T13:40:19.639Z,22.5
2018-08-22T13:41:08.917Z,22.5
2018-08-22T13:41:58.903Z,22.5
2018-08-22T13:42:48.948Z,22.5
2018-08-22T13:43:38.487Z,22.5
2018-08-22T13:44:29.122Z,22.5
2018-08-22T13:45:18.324Z,22.5
2018-08-22T13:46:09.259Z,22.5
2018-08-22T13:46:59.018Z,22.5
2018-08-22T13:47:48.496Z,22.5
2018-08-22T13:48:39.395Z,22.5
2018-08-22T13:49:28.672Z,22.5
2018-08-22T13:50:18.788Z,22.5
2018-08-22T13:51:08.831Z,22.5
2018-08-22T13:51:59.293Z,22.5
2018-08-22T13:52:49.465Z,22.5
2018-08-22T13:53:39.344Z,22.5
2018-08-22T13:54:29.664Z,22.5
2018-08-22T13:55:18.909Z,22.5
2018-08-22T13:56:11.702Z,22.5
2018-08-22T13:56:59.895Z,22.5
2018-08-22T13:57:49.937Z,22.5
2018-08-22T13:58:39.970Z,22.5
2018-08-22T13:59:30.092Z,22.5
2018-08-22T14:00:20.180Z,22.5
2018-08-22T14:01:10.210Z,22.5
2018-08-22T14:02:00.560Z,22.5
2018-08-22T14:02:49.762Z,22.5
2018-08-22T14:03:40.370Z,22.5
2018-08-22T14:04:28.772Z,22.5
2018-08-22T14:05:20.775Z,22.5
2018-08-22T14:06:10.018Z,22.5
2018-08-22T14:07:00.330Z,22.5
2018-08-22T14:07:50.481Z,22.5
2018-08-22T14:08:40.528Z,22.5
2018-08-22T14:09:31.131Z,22.5
2018-08-22T14:10:20.969Z,22.5
2018-08-22T14:11:10.507Z,22.5
2018-08-22T14:12:01.002Z,22.5
2018-08-22T14:12:51.367Z,22.5
2018-08-22T14:13:40.060Z,22.5
2018-08-22T14:14:30.640Z,22.5
2018-08-22T14:15:21.055Z,22.5
2018-08-22T14:16:12.280Z,22.5
2018-08-22T14:17:01.370Z,22.6
2018-08-22T14:17:51.734Z,22.5
2018-08-22T14:18:41.226Z,22.5
2018-08-22T14:19:31.629Z,22.5
2018-08-22T14:20:21.382Z,22.5
2018-08-22T14:21:11.166Z,22.5
2018-08-22T14:22:01.553Z,22.5
2018-08-22T14:22:52.140Z,22.5
2018-08-22T14:23:41.942Z,22.5
2018-08-22T14:24:32.005Z,22.5
2018-08-22T14:25:22.086Z,22.5
2018-08-22T14:26:11.829Z,22.5
2018-08-22T14:27:02.399Z,22.5
2018-08-22T14:27:52.473Z,22.5
2018-08-22T14:28:42.010Z,22.5
2018-08-22T14:29:32.591Z,22.6
2018-08-22T14:30:22.950Z,22.5
2018-08-22T14:31:12.791Z,22.5
2018-08-22T14:32:02.760Z,22.5
2018-08-22T14:32:52.936Z,22.5
2018-08-22T14:33:43.908Z,22.5
2018-08-22T14:34:32.193Z,22.5
2018-08-22T14:35:22.278Z,22.5
2018-08-22T14:36:12.983Z,22.5
2018-08-22T14:37:02.436Z,22.5
2018-08-22T14:37:53.318Z,22.5
2018-08-22T14:38:43.120Z,22.5
2018-08-22T14:39:33.264Z,22.5
2018-08-22T14:40:23.028Z,22.6
2018-08-22T14:41:13.583Z,22.5
2018-08-22T14:42:02.809Z,22.5
2018-08-22T14:42:52.647Z,22.5
2018-08-22T14:43:42.944Z,22.6
2018-08-22T14:44:32.709Z,22.5
2018-08-22T14:45:22.819Z,22.5
2018-08-22T14:46:13.695Z,22.5
2018-08-22T14:47:03.925Z,22.6
2018-08-22T14:47:54.060Z,22.5
2018-08-22T14:48:44.152Z,22.5
2018-08-22T14:49:34.239Z,22.5
2018-08-22T14:50:24.004Z,22.5
2018-08-22T14:51:14.168Z,22.5
2018-08-22T14:52:03.596Z,22.6
2018-08-22T14:52:54.208Z,22.6
2018-08-22T14:53:44.303Z,22.6
2018-08-22T14:54:34.317Z,22.6
2018-08-22T14:55:24.671Z,22.6
2018-08-22T14:56:16.729Z,22.6
2018-08-22T14:57:04.834Z,22.5
2018-08-22T14:57:54.631Z,22.6
2018-08-22T14:58:43.885Z,22.5
2018-08-22T14:59:34.477Z,22.5
2018-08-22T15:00:24.812Z,22.6
2018-08-22T15:01:14.555Z,22.6
2018-08-22T15:02:04.917Z,22.6
2018-08-22T15:03:01.489Z,22.6
2018-08-22T15:03:46.067Z,22.6
2018-08-22T15:04:34.640Z,22.6
2018-08-22T15:05:24.753Z,22.6
2018-08-22T15:06:14.353Z,22.6
2018-08-22T15:07:05.369Z,22.6
2018-08-22T15:07:54.598Z,22.6
2018-08-22T15:08:44.951Z,22.6
2018-08-22T15:09:35.286Z,22.6
2018-08-22T15:10:25.141Z,22.6
2018-08-22T15:11:15.119Z,22.6
2018-08-22T15:12:04.923Z,22.6
2018-08-22T15:12:57.172Z,22.6
2018-08-22T15:13:45.400Z,22.6
2018-08-22T15:14:35.964Z,22.6
2018-08-22T15:15:25.325Z,22.6
2018-08-22T15:16:15.810Z,22.6
2018-08-22T15:17:06.203Z,22.6
2018-08-22T15:17:55.949Z,22.6
2018-08-22T15:18:46.002Z,22.6
2018-08-22T15:19:34.967Z,22.6
2018-08-22T15:20:25.335Z,22.6
2018-08-22T15:21:16.457Z,22.6
2018-08-22T15:22:06.294Z,22.6
2018-08-22T15:22:56.322Z,22.6
2018-08-22T15:23:45.772Z,22.6
2018-08-22T15:24:36.159Z,22.6
2018-08-22T15:25:27.074Z,22.6
2018-08-22T15:26:16.774Z,22.6
2018-08-22T15:27:07.222Z,22.6
2018-08-22T15:27:56.964Z,22.6
2018-08-22T15:28:47.397Z,22.6
2018-08-22T15:29:36.814Z,22.6
2018-08-22T15:30:26.105Z,22.6
2018-08-22T15:31:17.484Z,22.6
2018-08-22T15:32:06.997Z,22.6
2018-08-22T15:32:56.787Z,22.6
2018-08-22T15:33:47.090Z,22.6
2018-08-22T15:34:37.167Z,22.6
2018-08-22T15:35:27.018Z,22.6
2018-08-22T15:36:16.773Z,22.6
2018-08-22T15:37:07.457Z,22.6
2018-08-22T15:37:57.759Z,22.6
2018-08-22T15:38:47.230Z,22.6
2018-08-22T15:39:37.034Z,22.6
2018-08-22T15:40:27.411Z,22.6
2018-08-22T15:41:17.880Z,22.6
2018-08-22T15:42:08.859Z,22.6
2018-08-22T15:42:57.058Z,22.6
2018-08-22T15:43:47.460Z,22.6
2018-08-22T15:44:38.058Z,22.6
2018-08-22T15:45:28.656Z,22.6
2018-08-22T15:46:17.969Z,22.6
2018-08-22T15:47:07.569Z,22.6
2018-08-22T15:47:58.560Z,22.6
2018-08-22T15:48:48.126Z,22.6
2018-08-22T15:49:37.266Z,22.6
2018-08-22T15:50:28.446Z,22.6
2018-08-22T15:51:18.388Z,22.6
2018-08-22T15:52:07.811Z,22.6
2018-08-22T15:52:59.070Z,22.6
2018-08-22T15:53:48.717Z,22.6
2018-08-22T15:54:38.601Z,22.6
2018-08-22T15:55:28.855Z,22.6
2018-08-22T15:56:18.923Z,22.6
2018-08-22T15:57:09.001Z,22.6
2018-08-22T16:16:24.339Z,22.6
2018-08-22T16:17:14.425Z,22.6
2018-08-22T16:18:04.057Z,22.6
2018-08-22T16:18:54.318Z,22.6
2018-08-22T16:19:44.672Z,22.6
2018-08-22T16:20:34.349Z,22.6
2018-08-22T16:21:25.034Z,22.6
2018-08-22T16:22:14.549Z,22.6
2018-08-22T16:23:05.167Z,22.6
2018-08-22T16:23:55.014Z,22.6
2018-08-22T16:24:45.695Z,22.6
2018-08-22T16:25:35.626Z,22.6
2018-08-22T16:26:24.683Z,22.6
2018-08-22T16:27:15.596Z,22.6
2018-08-22T16:28:05.324Z,22.6
2018-08-22T16:28:55.177Z,22.6
2018-08-22T16:29:45.382Z,22.6
2018-08-22T16:30:37.351Z,22.6
2018-08-22T16:31:25.965Z,22.6
2018-08-22T16:32:14.900Z,22.6
2018-08-22T16:33:04.912Z,22.6
2018-08-22T16:33:55.517Z,22.6
2018-08-22T16:34:45.515Z,22.6
2018-08-22T16:35:36.447Z,22.6
2018-08-22T16:36:25.136Z,22.6
2018-08-22T16:37:16.307Z,22.6
2018-08-22T16:38:06.639Z,22.6
2018-08-22T16:38:56.137Z,22.6
2018-08-22T16:39:45.923Z,22.6
2018-08-22T16:40:36.803Z,22.6
2018-08-22T16:41:26.592Z,22.6
2018-08-22T16:42:15.710Z,22.6
2018-08-22T16:43:06.732Z,22.6
2018-08-22T16:43:56.783Z,22.6
2018-08-22T16:44:47.125Z,22.6
2018-08-22T16:45:36.919Z,22.6
2018-08-22T16:46:27.281Z,22.6
2018-08-22T16:47:17.089Z,22.6
2018-08-22T16:48:06.843Z,22.6
2018-08-22T16:48:57.178Z,22.6
2018-08-22T16:49:46.441Z,22.6
2018-08-22T16:50:37.592Z,22.6
2018-08-22T16:51:27.383Z,22.6
2018-08-22T16:52:17.208Z,22.6
2018-08-22T16:53:07.260Z,22.6
2018-08-22T16:53:57.559Z,22.6
2018-08-22T16:54:47.377Z,22.6
2018-08-22T16:55:37.190Z,22.6
2018-08-22T16:56:26.934Z,22.7
2018-08-22T16:57:17.517Z,22.7
2018-08-22T16:58:07.912Z,22.7
2018-08-22T16:58:57.415Z,22.8
2018-08-22T16:59:47.772Z,22.8
2018-08-22T17:00:38.102Z,22.8
2018-08-22T17:01:28.170Z,22.8
2018-08-22T17:02:18.566Z,22.8
2018-08-22T17:03:08.109Z,22.9
2018-08-22T17:03:57.839Z,22.9
2018-08-22T17:04:47.605Z,22.9
2018-08-22T17:05:38.217Z,22.9
2018-08-22T17:06:28.266Z,22.9
2018-08-22T17:07:18.431Z,22.9
2018-08-22T17:08:07.588Z,22.9
2018-08-22T17:08:58.526Z,22.9
2018-08-22T17:09:48.254Z,22.9
2018-08-22T17:10:39.189Z,22.9
2018-08-22T17:11:28.991Z,22.9
2018-08-22T17:12:19.066Z,22.9
2018-08-22T17:13:08.806Z,22.9
2018-08-22T17:13:58.761Z,22.9
2018-08-22T17:14:48.936Z,22.9
2018-08-22T17:15:39.647Z,22.9
2018-08-22T17:16:29.115Z,22.9
2018-08-22T17:17:19.418Z,22.9
2018-08-22T17:18:08.680Z,22.9
2018-08-22T17:18:59.058Z,23
2018-08-22T17:19:49.893Z,22.9
2018-08-22T17:20:39.650Z,22.9
2018-08-22T17:21:29.971Z,22.9
2018-08-22T17:22:19.531Z,22.9
2018-08-22T17:23:10.058Z,22.9
2018-08-22T17:23:59.941Z,23
2018-08-22T17:24:49.997Z,23
2018-08-22T17:25:39.515Z,23
2018-08-22T17:26:29.785Z,23
2018-08-22T17:27:19.683Z,23
2018-08-22T17:28:09.420Z,23
2018-08-22T17:29:00.027Z,23
2018-08-22T17:29:50.365Z,23
2018-08-22T17:30:42.071Z,23
2018-08-22T17:31:30.564Z,23
2018-08-22T17:32:20.561Z,23
2018-08-22T17:33:10.086Z,23
2018-08-22T17:34:00.143Z,23
2018-08-22T17:34:49.940Z,23
2018-08-22T17:35:40.843Z,22.9
2018-08-22T17:36:30.355Z,23
2018-08-22T17:37:21.302Z,23
2018-08-22T17:38:10.563Z,23
2018-08-22T17:39:00.917Z,22.9
2018-08-22T17:39:51.527Z,23
2018-08-22T17:40:41.529Z,23
2018-08-22T17:41:31.364Z,23
2018-08-22T17:42:21.179Z,23
2018-08-22T17:43:11.224Z,23
2018-08-22T17:44:01.502Z,23
2018-08-22T17:44:51.027Z,23
2018-08-22T17:45:41.127Z,23
2018-08-22T17:46:30.629Z,23
2018-08-22T17:47:21.785Z,23
2018-08-22T17:48:11.591Z,23
2018-08-22T17:49:01.931Z,23
2018-08-22T17:49:51.957Z,23
2018-08-22T17:50:41.041Z,23
2018-08-22T17:51:31.011Z,23
2018-08-22T17:52:21.924Z,23
2018-08-22T17:53:11.769Z,23
2018-08-22T17:54:01.205Z,23.1
2018-08-22T17:54:52.304Z,23
2018-08-22T17:55:42.680Z,23
2018-08-22T17:56:32.727Z,23
2018-08-22T17:57:21.761Z,23
2018-08-22T17:58:12.688Z,23
2018-08-22T17:59:02.694Z,23
2018-08-22T17:59:53.104Z,23
2018-08-22T18:00:42.267Z,23
2018-08-22T18:01:32.314Z,23
2018-08-22T18:02:23.232Z,23
2018-08-22T18:03:13.258Z,23
2018-08-22T18:04:02.556Z,23
2018-08-22T18:04:53.157Z,23
2018-08-22T18:05:43.383Z,23
2018-08-22T18:06:35.473Z,23
2018-08-22T18:07:24.599Z,23
2018-08-22T18:08:13.708Z,23
2018-08-22T18:09:03.443Z,23
2018-08-22T18:09:53.233Z,23
2018-08-22T18:10:43.306Z,23
2018-08-22T18:11:33.372Z,23
2018-08-22T18:12:23.258Z,23
2018-08-22T18:13:14.202Z,23
2018-08-22T18:14:05.140Z,23
2018-08-22T18:14:53.404Z,23
2018-08-22T18:15:43.234Z,23
2018-08-22T18:16:33.916Z,23
2018-08-22T18:17:23.605Z,23
2018-08-22T18:18:14.165Z,23
2018-08-22T18:19:03.426Z,23
2018-08-22T18:19:53.821Z,23
2018-08-22T18:20:44.126Z,23
2018-08-22T18:21:33.921Z,23
2018-08-22T18:22:23.232Z,23
2018-08-22T18:23:14.009Z,23.1
2018-08-22T18:24:03.567Z,23.1
2018-08-22T18:24:54.732Z,23.1
2018-08-22T18:25:44.843Z,23
2018-08-22T18:26:34.917Z,23
2018-08-22T18:27:25.985Z,23
2018-08-22T18:28:14.119Z,23.1
2018-08-22T18:29:04.816Z,23
2018-08-22T18:29:54.864Z,23
2018-08-22T18:30:44.334Z,23
2018-08-22T18:31:35.509Z,23
2018-08-22T18:32:25.649Z,23.1
2018-08-22T18:33:15.128Z,23.1
2018-08-22T18:34:05.374Z,23
2018-08-22T18:34:56.157Z,23
2018-08-22T18:35:45.249Z,23
2018-08-22T18:36:35.170Z,23
2018-08-22T18:37:25.115Z,23
2018-08-22T18:38:15.196Z,23
2018-08-22T18:39:05.511Z,23
2018-08-22T18:39:55.054Z,23
2018-08-22T18:40:45.935Z,23.1
2018-08-22T18:41:36.081Z,23.1